Braddock, North Dakota
Current Conditions -  °F | °C
As of 12:55 AM on Thursday 27 Nov 2014 (Local Time) from K7L2 Reporting Station
Clear Clear  
Wind Chill: -28°   Ceiling: Unl
Heat Index: -11°   Visibility: 10mi
Dew Point: -17°   Wind: 8mph
Humidity: 77%   Direction: 90°E
Pressure: 30.44"   Gusts: NA
Location:  46.56°N, 100.09°W
Report Text: K7L2 270655Z AUTO 09007KT 10SM CLR M24/M27 A3044 RMK AO2
Loading
Personal Weather Stations






























Interactive Weather Map New forecast layout! Learn more

10-Day Weather Forecast

Advertisements
Track Severe Weather on mobile